Time;durP1;ratioP1;P1;durP2;ratioP2;P2;SDS_P1;SDS_P2;PMS_P1;PMS_P2;Temp;Humidity;BMP_temperature;BMP_pressure;BME280_temperature;BME280_humidity;BME280_pressure;Samples;Min_cycle;Max_cycle;Signal;HPM_P1;HPM_P2
2022/05/27 00:00:44;;;;;;;10.73;3.95;;;13.60;99.90;;;;;;5054736;28;20060;-77
2022/05/27 00:03:10;;;;;;;10.90;3.60;;;13.60;99.90;;;;;;5071897;28;20052;-79
2022/05/27 00:05:37;;;;;;;10.55;4.15;;;13.60;99.90;;;;;;5072111;28;20059;-78
2022/05/27 00:08:03;;;;;;;9.30;3.92;;;13.60;99.90;;;;;;5071899;28;20445;-79
2022/05/27 00:10:29;;;;;;;10.02;3.38;;;13.60;99.90;;;;;;5054563;28;20041;-80
2022/05/27 00:12:55;;;;;;;10.35;3.33;;;13.60;99.90;;;;;;5054368;28;20044;-78
2022/05/27 00:15:21;;;;;;;11.27;3.85;;;13.60;99.90;;;;;;5055460;28;20120;-78
2022/05/27 00:17:47;;;;;;;10.00;3.75;;;13.60;99.90;;;;;;5075876;28;20054;-78
2022/05/27 00:20:13;;;;;;;12.55;4.30;;;13.60;99.90;;;;;;5075707;28;20048;-79
2022/05/27 00:22:39;;;;;;;11.30;4.18;;;13.60;99.90;;;;;;5075592;28;20091;-77
2022/05/27 00:25:06;;;;;;;7.15;3.67;;;13.60;99.90;;;;;;5075883;28;20071;-80
2022/05/27 00:27:32;;;;;;;9.02;4.32;;;13.60;99.90;;;;;;5075310;28;20048;-78
2022/05/27 00:29:57;;;;;;;11.35;4.45;;;13.60;99.90;;;;;;5058346;28;20327;-78
2022/05/27 00:32:24;;;;;;;14.25;5.25;;;13.70;99.90;;;;;;5075732;28;20048;-77
2022/05/27 00:34:49;;;;;;;13.38;4.72;;;13.70;99.90;;;;;;5058073;28;20056;-78
2022/05/27 00:37:15;;;;;;;13.05;4.80;;;13.70;99.90;;;;;;5058064;28;20098;-78
2022/05/27 00:39:41;;;;;;;13.23;4.82;;;13.70;99.90;;;;;;5075582;28;20048;-77
2022/05/27 00:42:08;;;;;;;12.55;5.28;;;13.70;99.90;;;;;;5075413;28;20040;-77
2022/05/27 00:44:34;;;;;;;12.65;5.15;;;13.70;99.90;;;;;;5057568;28;20101;-79
2022/05/27 00:47:10;;;;;;;13.20;5.43;;;13.70;99.90;;;;;;5075357;28;20119;-78
2022/05/27 00:49:44;;;;;;;12.88;5.32;;;13.70;99.90;;;;;;5057648;28;20101;-79
2022/05/27 00:52:12;;;;;;;12.75;4.70;;;13.70;99.90;;;;;;5057643;28;20045;-76
2022/05/27 00:54:40;;;;;;;14.57;4.85;;;13.70;99.90;;;;;;5075213;28;20058;-77
2022/05/27 00:57:20;;;;;;;11.50;4.07;;;13.70;99.90;;;;;;5057725;28;20450;-77
2022/05/27 01:00:12;;;;;;;12.85;4.47;;;13.70;99.90;;;;;;5075027;28;20035;-78
2022/05/27 01:02:39;;;;;;;10.73;4.28;;;13.70;99.90;;;;;;5066173;28;20052;-78
2022/05/27 01:05:08;;;;;;;13.43;4.30;;;13.70;99.90;;;;;;5057434;28;20056;-78
2022/05/27 01:07:34;;;;;;;12.95;3.92;;;13.60;99.90;;;;;;5075055;28;20037;-79
2022/05/27 01:10:01;;;;;;;13.25;4.18;;;13.60;99.90;;;;;;5057306;28;20119;-78
2022/05/27 01:12:44;;;;;;;12.40;4.38;;;13.50;99.90;;;;;;5057577;28;20453;-78
2022/05/27 01:15:38;;;;;;;10.48;4.18;;;13.40;99.90;;;;;;5074944;28;20044;-78
2022/05/27 01:18:24;;;;;;;19.92;4.60;;;13.30;99.90;;;;;;5074830;28;20404;-77
2022/05/27 01:21:03;;;;;;;16.58;4.80;;;13.30;99.90;;;;;;5074795;28;20060;-79
2022/05/27 01:24:06;;;;;;;13.43;4.85;;;13.20;99.90;;;;;;5056948;28;20055;-79
2022/05/27 01:26:52;;;;;;;16.35;5.40;;;13.20;99.90;;;;;;5073980;28;20124;-78
2022/05/27 01:29:36;;;;;;;12.68;4.85;;;13.10;99.90;;;;;;5056915;28;20128;-78
2022/05/27 01:32:15;;;;;;;16.05;5.18;;;13.00;99.90;;;;;;5057153;28;20052;-78
2022/05/27 01:34:52;;;;;;;15.55;4.80;;;13.00;99.90;;;;;;5074353;28;20427;-78
2022/05/27 01:37:42;;;;;;;17.10;5.45;;;12.90;99.90;;;;;;5074665;28;20052;-77
2022/05/27 01:40:38;;;;;;;16.83;6.22;;;12.90;99.90;;;;;;5074553;28;20040;-78
2022/05/27 01:43:36;;;;;;;21.85;5.60;;;12.80;99.90;;;;;;5074213;28;20190;-79
2022/05/27 01:46:03;;;;;;;17.90;5.65;;;12.70;99.90;;;;;;5013295;28;20049;-78
2022/05/27 01:48:41;;;;;;;19.83;6.25;;;12.60;99.90;;;;;;5074366;28;20048;-78
2022/05/27 01:51:14;;;;;;;18.35;5.78;;;12.60;99.90;;;;;;5074245;28;20044;-78
2022/05/27 01:54:00;;;;;;;17.05;5.97;;;12.50;99.90;;;;;;5074020;28;20087;-78
2022/05/27 01:56:41;;;;;;;17.52;5.55;;;12.50;99.90;;;;;;5074201;28;20047;-78
2022/05/27 01:59:37;;;;;;;80.63;10.45;;;12.40;99.90;;;;;;5074188;28;20131;-77
2022/05/27 02:02:15;;;;;;;15.77;5.40;;;12.40;99.90;;;;;;5067337;28;20052;-78
2022/05/27 02:04:44;;;;;;;48.08;8.18;;;12.30;99.90;;;;;;5074024;28;20182;-77
2022/05/27 02:07:28;;;;;;;302.27;26.10;;;12.30;99.90;;;;;;5073913;28;20083;-77
2022/05/27 02:10:01;;;;;;;15.77;5.38;;;12.20;99.90;;;;;;5073488;28;20343;-78
2022/05/27 02:12:36;;;;;;;18.30;5.20;;;12.20;99.90;;;;;;5074054;28;20062;-77
2022/05/27 02:15:08;;;;;;;51.58;6.28;;;12.10;99.90;;;;;;5056218;28;20051;-78
2022/05/27 02:17:45;;;;;;;21.00;6.20;;;12.10;99.90;;;;;;5073755;28;20040;-79
2022/05/27 02:20:16;;;;;;;15.07;5.20;;;12.00;99.90;;;;;;5055776;28;20410;-77
2022/05/27 02:22:49;;;;;;;46.25;7.72;;;12.00;99.90;;;;;;5056031;28;20056;-78
2022/05/27 02:25:23;;;;;;;20.38;6.10;;;12.00;99.90;;;;;;5073440;28;20036;-76
2022/05/27 02:28:09;;;;;;;20.65;6.00;;;11.90;99.90;;;;;;5055747;28;20122;-77
2022/05/27 02:30:39;;;;;;;19.20;6.80;;;11.90;99.90;;;;;;5073385;28;20319;-81
2022/05/27 02:37:01;;;;;;;19.50;5.85;;;11.90;99.90;;;;;;5072950;28;20051;-78
2022/05/27 02:39:27;;;;;;;26.15;5.97;;;11.90;99.90;;;;;;5072877;28;20076;-79
2022/05/27 02:42:10;;;;;;;22.88;5.25;;;11.90;99.90;;;;;;5073309;28;20429;-79
2022/05/27 02:45:00;;;;;;;16.92;4.80;;;12.00;99.90;;;;;;5055565;28;20056;-78
2022/05/27 02:47:48;;;;;;;15.07;4.20;;;12.00;99.90;;;;;;5073186;28;20044;-78
2022/05/27 02:50:42;;;;;;;18.65;4.68;;;12.00;99.90;;;;;;5073127;28;20051;-77
2022/05/27 02:53:17;;;;;;;16.88;5.40;;;12.00;99.90;;;;;;5073228;28;20055;-78
2022/05/27 02:55:42;;;;;;;16.90;5.15;;;12.00;99.90;;;;;;5055319;28;20131;-78
2022/05/27 02:58:08;;;;;;;19.85;5.00;;;12.00;99.90;;;;;;5072907;28;20127;-77
2022/05/27 03:00:36;;;;;;;16.13;5.35;;;12.00;99.90;;;;;;5055459;28;20072;-78
2022/05/27 03:03:02;;;;;;;27.25;5.00;;;12.00;99.90;;;;;;5072837;28;20079;-79
2022/05/27 03:05:49;;;;;;;20.00;5.43;;;12.10;99.90;;;;;;5055486;28;20055;-78
2022/05/27 03:08:22;;;;;;;18.38;4.50;;;12.10;99.90;;;;;;5055317;28;20048;-78
2022/05/27 03:11:16;;;;;;;20.35;5.47;;;12.10;99.90;;;;;;5055230;28;20048;-78
2022/05/27 03:14:12;;;;;;;21.05;4.70;;;12.10;99.90;;;;;;5072925;28;20036;-79
2022/05/27 03:17:12;;;;;;;17.25;4.72;;;12.10;99.90;;;;;;5072593;28;20136;-79
2022/05/27 03:20:02;;;;;;;17.35;5.03;;;12.00;99.90;;;;;;5072507;28;20048;-78
2022/05/27 03:22:39;;;;;;;10.85;4.00;;;12.00;99.90;;;;;;5072693;28;20461;-78
2022/05/27 03:25:28;;;;;;;16.90;4.72;;;12.00;99.90;;;;;;5072363;28;20044;-77
2022/05/27 03:28:06;;;;;;;24.83;5.50;;;12.00;99.90;;;;;;5072119;28;20096;-77
2022/05/27 03:30:44;;;;;;;18.15;4.93;;;12.00;99.90;;;;;;5072506;28;20362;-77
2022/05/27 03:33:37;;;;;;;22.60;4.85;;;12.00;99.90;;;;;;5072132;28;20419;-79
2022/05/27 03:36:18;;;;;;;17.10;4.72;;;12.00;99.90;;;;;;5054741;28;20515;-79
2022/05/27 03:38:56;;;;;;;22.30;5.22;;;12.00;99.90;;;;;;5072519;28;20083;-78
2022/05/27 03:41:26;;;;;;;25.85;5.13;;;12.00;99.90;;;;;;5071859;28;20545;-79
2022/05/27 03:43:53;;;;;;;15.80;4.30;;;12.00;99.90;;;;;;5054811;28;20133;-78
2022/05/27 03:46:35;;;;;;;17.02;3.90;;;12.00;99.90;;;;;;5072018;28;20080;-78
2022/05/27 03:49:01;;;;;;;19.42;4.47;;;12.00;99.90;;;;;;5072249;28;20246;-77
2022/05/27 03:51:31;;;;;;;18.00;4.50;;;12.00;99.90;;;;;;5077589;28;20048;-78
2022/05/27 03:54:06;;;;;;;14.43;4.53;;;12.10;99.90;;;;;;5079070;28;20382;-78
2022/05/27 03:56:36;;;;;;;15.48;4.40;;;12.10;99.90;;;;;;5078628;28;20094;-78
2022/05/27 03:59:04;;;;;;;27.58;5.00;;;12.10;99.90;;;;;;5078580;28;20048;-79
2022/05/27 04:01:32;;;;;;;19.52;4.10;;;12.20;99.90;;;;;;5078758;28;20048;-78
2022/05/27 04:04:00;;;;;;;18.80;4.13;;;12.20;99.90;;;;;;5061264;28;20186;-78
2022/05/27 04:06:28;;;;;;;14.70;3.75;;;12.20;99.90;;;;;;5061110;28;20316;-78
2022/05/27 04:08:57;;;;;;;13.68;4.05;;;12.20;99.90;;;;;;5078935;28;20063;-77
2022/05/27 04:11:24;;;;;;;18.05;4.05;;;12.20;99.90;;;;;;5078542;28;20040;-77
2022/05/27 04:13:50;;;;;;;15.40;3.85;;;12.20;99.90;;;;;;5078692;28;20044;-79
2022/05/27 04:16:16;;;;;;;11.93;3.22;;;12.20;99.90;;;;;;5078705;28;20346;-77
2022/05/27 04:18:42;;;;;;;16.05;3.50;;;12.20;99.90;;;;;;5079245;28;20120;-76
2022/05/27 04:21:08;;;;;;;12.18;3.85;;;12.20;99.90;;;;;;5081395;28;20388;-77
2022/05/27 04:23:33;;;;;;;15.32;3.22;;;12.20;99.90;;;;;;5079741;28;20051;-77
2022/05/27 04:25:59;;;;;;;12.00;3.25;;;12.20;99.90;;;;;;5062770;28;20052;-77
2022/05/27 04:28:25;;;;;;;14.25;3.60;;;12.20;99.90;;;;;;5060539;28;20110;-77
2022/05/27 04:30:51;;;;;;;16.38;3.50;;;12.20;99.90;;;;;;5080016;28;20044;-77
2022/05/27 04:33:16;;;;;;;16.50;3.25;;;12.20;99.90;;;;;;5063254;28;20082;-77
2022/05/27 04:35:42;;;;;;;12.75;3.25;;;12.20;99.90;;;;;;5063518;28;20059;-79
2022/05/27 04:38:09;;;;;;;11.57;3.40;;;12.20;99.90;;;;;;5080378;28;20053;-77
2022/05/27 04:40:35;;;;;;;12.38;3.45;;;12.20;99.90;;;;;;5078786;28;20072;-77
2022/05/27 04:43:02;;;;;;;15.23;3.20;;;12.20;99.90;;;;;;5078382;28;20048;-78
2022/05/27 04:45:29;;;;;;;14.60;3.38;;;12.20;99.90;;;;;;5078613;28;20117;-78
2022/05/27 04:47:55;;;;;;;15.30;3.40;;;12.20;99.90;;;;;;5078031;28;20454;-78
2022/05/27 04:50:21;;;;;;;12.55;3.05;;;12.10;99.90;;;;;;5060935;28;20040;-79
2022/05/27 04:52:47;;;;;;;11.40;3.28;;;12.10;99.90;;;;;;5078316;28;20056;-79
2022/05/27 04:55:15;;;;;;;14.48;3.58;;;12.00;99.90;;;;;;5060849;28;20036;-76
2022/05/27 04:57:47;;;;;;;16.05;3.42;;;12.10;99.90;;;;;;5060809;28;20040;-80
2022/05/27 05:00:43;;;;;;;16.63;3.15;;;12.00;99.90;;;;;;5078479;28;20040;-78
2022/05/27 05:03:10;;;;;;;13.80;3.05;;;12.00;99.90;;;;;;5041348;28;20084;-77
2022/05/27 05:05:36;;;;;;;12.50;3.03;;;12.00;99.90;;;;;;5075229;28;20047;-79
2022/05/27 05:08:03;;;;;;;16.83;3.50;;;12.00;99.90;;;;;;5074963;28;20053;-79
2022/05/27 05:10:30;;;;;;;9.35;2.45;;;12.00;99.90;;;;;;5075245;28;20044;-78
2022/05/27 05:12:57;;;;;;;9.65;2.53;;;12.00;99.90;;;;;;5075170;28;20300;-77
2022/05/27 05:15:25;;;;;;;15.18;3.35;;;12.00;99.90;;;;;;5075031;28;20123;-78
2022/05/27 05:17:52;;;;;;;12.07;3.00;;;12.10;99.90;;;;;;5074701;28;20037;-78
2022/05/27 05:20:22;;;;;;;13.20;4.40;;;12.10;99.90;;;;;;5057185;28;20398;-77
2022/05/27 05:22:48;;;;;;;12.30;2.70;;;12.20;99.90;;;;;;5074393;28;20766;-78
2022/05/27 05:25:13;;;;;;;11.32;2.45;;;12.20;99.90;;;;;;5074943;28;20343;-79
2022/05/27 05:27:41;;;;;;;10.48;2.83;;;12.30;99.90;;;;;;5056760;28;20055;-78
2022/05/27 05:30:11;;;;;;;16.92;3.33;;;12.40;99.90;;;;;;5074479;28;20106;-77
2022/05/27 05:32:37;;;;;;;18.45;3.85;;;12.50;99.90;;;;;;5057184;28;20052;-78
2022/05/27 05:35:03;;;;;;;12.75;2.92;;;12.60;99.90;;;;;;5074577;28;20513;-80
2022/05/27 05:37:29;;;;;;;10.55;2.70;;;12.50;99.90;;;;;;5074571;28;20044;-77
2022/05/27 05:39:55;;;;;;;12.63;3.35;;;12.50;99.90;;;;;;5057012;28;20120;-77
2022/05/27 05:42:21;;;;;;;14.85;3.30;;;12.50;99.90;;;;;;5074427;28;20048;-77
2022/05/27 05:44:47;;;;;;;9.75;2.65;;;12.50;99.90;;;;;;5074501;28;20450;-77
2022/05/27 05:47:12;;;;;;;15.65;3.33;;;12.60;99.90;;;;;;5053746;28;20084;-77
2022/05/27 05:49:38;;;;;;;11.00;3.42;;;12.60;99.90;;;;;;5056779;28;20427;-77
2022/05/27 05:52:04;;;;;;;10.73;3.05;;;12.60;99.90;;;;;;5039628;28;20048;-77
2022/05/27 05:54:30;;;;;;;11.85;2.60;;;12.50;99.90;;;;;;5074137;28;20083;-77
2022/05/27 05:57:00;;;;;;;11.90;3.58;;;12.50;99.90;;;;;;5056560;28;20077;-76
2022/05/27 05:59:30;;;;;;;13.25;3.22;;;12.60;99.90;;;;;;5056650;28;20266;-80
2022/05/27 06:01:57;;;;;;;14.93;3.47;;;12.80;99.90;;;;;;5056352;28;20048;-78
2022/05/27 06:04:22;;;;;;;16.55;4.03;;;13.00;99.90;;;;;;5056586;28;20056;-80
2022/05/27 06:06:48;;;;;;;14.73;3.40;;;13.10;99.90;;;;;;5073992;28;20049;-77
2022/05/27 06:09:14;;;;;;;13.98;4.07;;;13.40;99.90;;;;;;5074058;28;20055;-78
2022/05/27 06:11:40;;;;;;;18.58;4.00;;;13.60;99.90;;;;;;5073760;28;20504;-79
2022/05/27 06:14:06;;;;;;;12.07;3.20;;;13.70;99.90;;;;;;5058598;28;20064;-77
2022/05/27 06:16:33;;;;;;;11.02;2.75;;;13.80;99.90;;;;;;5059493;28;20036;-78
2022/05/27 06:18:59;;;;;;;9.15;2.60;;;13.70;99.90;;;;;;5056020;28;20036;-78
2022/05/27 06:21:26;;;;;;;14.10;3.85;;;13.70;99.90;;;;;;5073779;28;20059;-78
2022/05/27 06:23:52;;;;;;;9.75;2.85;;;13.80;99.90;;;;;;5056091;28;20044;-79
2022/05/27 06:26:18;;;;;;;13.80;3.92;;;13.80;99.90;;;;;;5057408;28;20054;-77
2022/05/27 06:34:25;;;;;;;11.05;2.75;;;14.00;99.90;;;;;;5073667;28;20051;-77
2022/05/27 06:37:04;;;;;;;10.73;2.97;;;14.20;99.90;;;;;;5056249;28;20204;-79
2022/05/27 06:39:32;;;;;;;9.57;2.45;;;14.50;99.90;;;;;;5056467;28;20056;-79
2022/05/27 06:41:59;;;;;;;10.40;2.63;;;14.70;99.90;;;;;;5055984;28;20480;-83
2022/05/27 06:44:25;;;;;;;18.33;3.75;;;14.90;99.90;;;;;;5072245;28;20044;-80
2022/05/27 06:46:52;;;;;;;10.10;3.05;;;15.00;99.90;;;;;;5058242;28;20052;-77
2022/05/27 06:49:19;;;;;;;13.13;3.30;;;15.00;99.90;;;;;;5057815;28;20044;-78
2022/05/27 06:51:47;;;;;;;16.70;3.45;;;15.20;99.90;;;;;;5057138;28;20059;-80
2022/05/27 06:54:14;;;;;;;13.00;2.70;;;15.40;99.90;;;;;;5056562;28;20044;-81
2022/05/27 06:56:42;;;;;;;9.38;2.80;;;15.70;99.90;;;;;;5075611;28;20040;-80
2022/05/27 06:59:08;;;;;;;11.30;2.70;;;15.80;99.90;;;;;;5074363;28;20445;-78
2022/05/27 07:01:36;;;;;;;14.30;2.90;;;15.90;99.90;;;;;;5074990;28;20133;-80
2022/05/27 07:04:02;;;;;;;12.07;2.72;;;15.80;99.90;;;;;;5057006;28;20040;-82
2022/05/27 07:06:37;;;;;;;12.40;2.55;;;15.50;99.90;;;;;;5057169;28;20043;-80
2022/05/27 07:09:07;;;;;;;10.75;3.03;;;15.30;99.90;;;;;;5057155;28;20045;-81
2022/05/27 07:11:34;;;;;;;13.80;2.53;;;15.10;99.90;;;;;;5057894;28;20050;-82
2022/05/27 07:14:00;;;;;;;9.13;2.28;;;14.90;99.90;;;;;;5075799;28;20456;-81
2022/05/27 07:16:29;;;;;;;11.13;3.10;;;14.80;99.90;;;;;;5075196;28;20040;-81
2022/05/27 07:18:55;;;;;;;11.73;2.63;;;14.80;99.90;;;;;;5058306;28;20040;-82
2022/05/27 07:21:22;;;;;;;11.48;2.67;;;14.70;99.90;;;;;;5057719;28;20040;-80
2022/05/27 07:23:50;;;;;;;12.52;2.90;;;14.60;99.90;;;;;;5071803;28;20123;-82
2022/05/27 07:26:16;;;;;;;11.88;2.30;;;14.70;99.90;;;;;;5074980;28;20101;-80
2022/05/27 07:28:42;;;;;;;10.55;2.00;;;14.80;99.90;;;;;;5058147;28;20131;-80
2022/05/27 07:31:08;;;;;;;10.27;2.42;;;15.00;99.90;;;;;;5075161;28;20056;-81
2022/05/27 07:33:34;;;;;;;10.07;2.33;;;15.30;99.90;;;;;;5042009;28;20335;-80
2022/05/27 07:35:59;;;;;;;7.93;2.72;;;15.50;99.90;;;;;;5058311;28;20075;-80
2022/05/27 07:38:25;;;;;;;7.78;2.30;;;15.80;99.90;;;;;;5058010;28;20032;-81
2022/05/27 07:40:52;;;;;;;6.85;1.88;;;15.80;99.90;;;;;;5058315;28;20426;-81
2022/05/27 07:43:19;;;;;;;9.40;2.70;;;15.70;99.90;;;;;;5057210;28;20132;-82
2022/05/27 07:45:45;;;;;;;9.60;2.70;;;15.60;99.90;;;;;;5075460;28;20044;-80
2022/05/27 07:48:11;;;;;;;13.32;3.10;;;15.70;99.90;;;;;;5075357;28;20051;-81
2022/05/27 07:50:39;;;;;;;12.40;2.83;;;15.90;99.90;;;;;;5057853;28;20040;-81
2022/05/27 07:53:05;;;;;;;9.50;1.95;;;16.20;99.90;;;;;;5075135;28;20497;-83
2022/05/27 07:55:31;;;;;;;11.95;2.38;;;16.40;99.90;;;;;;5075495;28;20068;-82
2022/05/27 07:57:57;;;;;;;7.97;2.03;;;16.40;99.90;;;;;;5057270;28;20097;-79
2022/05/27 08:00:27;;;;;;;12.32;2.97;;;16.30;99.90;;;;;;5055936;28;20048;-77
2022/05/27 08:02:54;;;;;;;14.68;3.10;;;16.00;99.90;;;;;;5072901;28;20463;-79
2022/05/27 08:05:23;;;;;;;13.80;2.65;;;16.10;99.90;;;;;;5056834;28;20190;-80
2022/05/27 08:07:50;;;;;;;11.00;2.22;;;16.30;99.90;;;;;;5057175;28;20071;-80
2022/05/27 08:10:19;;;;;;;10.32;2.30;;;16.40;99.90;;;;;;5057239;28;20054;-78
2022/05/27 08:12:48;;;;;;;7.47;2.00;;;16.40;99.90;;;;;;5074580;28;20337;-88
2022/05/27 08:15:14;;;;;;;10.90;2.40;;;16.00;99.90;;;;;;5043495;28;20114;-79
2022/05/27 08:17:40;;;;;;;11.02;2.78;;;15.90;99.90;;;;;;5094240;28;20119;-80
2022/05/27 08:20:08;;;;;;;10.10;2.42;;;15.90;99.90;;;;;;5072466;28;20434;-80
2022/05/27 08:22:34;;;;;;;12.73;3.10;;;16.20;99.90;;;;;;5053157;28;20120;-79
2022/05/27 08:25:01;;;;;;;9.68;3.13;;;16.40;99.90;;;;;;5055572;28;20048;-80
2022/05/27 08:27:27;;;;;;;11.85;2.80;;;16.50;99.90;;;;;;5055839;28;20041;-80
2022/05/27 08:29:53;;;;;;;9.93;2.90;;;16.50;99.90;;;;;;5055334;28;20041;-80
2022/05/27 08:32:19;;;;;;;13.63;3.17;;;16.60;99.90;;;;;;5051297;28;20041;-80
2022/05/27 08:40:38;;;;;;;11.75;2.38;;;17.20;99.90;;;;;;5060051;28;20060;-81
2022/05/27 08:43:22;;;;;;;9.65;2.20;;;17.30;99.90;;;;;;5076579;28;20052;-81
2022/05/27 08:46:24;;;;;;;7.68;2.03;;;17.30;99.90;;;;;;5077168;28;20045;-80
2022/05/27 08:48:56;;;;;;;12.23;2.42;;;17.30;99.90;;;;;;5075955;28;20121;-79
2022/05/27 08:51:26;;;;;;;11.02;2.35;;;17.10;99.90;;;;;;5057809;28;20048;-79
2022/05/27 08:53:54;;;;;;;;;;;16.80;99.90;;;;;;5075952;28;20044;-80
2022/05/27 08:59:28;;;;;;;11.95;2.97;;;16.70;99.90;;;;;;5057481;28;20051;-81
2022/05/27 09:02:27;;;;;;;11.63;2.60;;;17.00;99.90;;;;;;5075228;28;20040;-80
2022/05/27 09:05:14;;;;;;;8.98;2.30;;;17.20;99.00;;;;;;5057574;28;20049;-80
2022/05/27 09:07:50;;;;;;;8.98;2.35;;;17.40;99.90;;;;;;5077400;28;20131;-81
2022/05/27 09:10:33;;;;;;;8.45;2.00;;;17.80;99.90;;;;;;5074260;28;20047;-81
2022/05/27 09:13:11;;;;;;;8.40;1.70;;;18.00;98.00;;;;;;5057632;28;20099;-80
2022/05/27 09:15:43;;;;;;;8.38;2.13;;;18.10;98.40;;;;;;5074467;28;20405;-79
2022/05/27 09:18:30;;;;;;;10.75;2.45;;;18.10;97.50;;;;;;5057426;28;20071;-80
2022/05/27 09:21:25;;;;;;;9.63;2.90;;;17.70;96.10;;;;;;5074976;28;20067;-80
2022/05/27 09:24:24;;;;;;;11.88;2.55;;;17.30;97.60;;;;;;5037724;28;20271;-80
2022/05/27 09:27:12;;;;;;;9.80;2.95;;;17.60;97.80;;;;;;5054773;28;20076;-84
2022/05/27 09:30:00;;;;;;;14.50;3.08;;;18.00;98.10;;;;;;5054541;28;20059;-81
2022/05/27 09:32:41;;;;;;;11.35;2.70;;;18.30;96.60;;;;;;5050291;28;20040;-82
2022/05/27 09:35:11;;;;;;;6.68;2.28;;;18.50;96.60;;;;;;5056885;28;20044;-82
2022/05/27 09:37:41;;;;;;;8.93;2.60;;;18.40;95.50;;;;;;5074335;28;20423;-83
2022/05/27 09:40:15;;;;;;;10.55;2.60;;;18.40;94.60;;;;;;5056761;28;20084;-81
2022/05/27 09:42:54;;;;;;;9.75;2.22;;;18.30;94.40;;;;;;5056544;28;20059;-81
2022/05/27 09:45:20;;;;;;;14.10;3.47;;;18.20;94.40;;;;;;5056939;28;20059;-81
2022/05/27 09:47:47;;;;;;;11.20;2.70;;;18.20;94.40;;;;;;5073218;28;20574;-80
2022/05/27 09:50:36;;;;;;;10.35;3.13;;;18.00;94.20;;;;;;5056663;28;20102;-82
2022/05/27 09:53:03;;;;;;;10.23;2.88;;;17.90;95.90;;;;;;5073345;28;20052;-80
2022/05/27 09:55:48;;;;;;;6.93;2.30;;;18.10;94.70;;;;;;5074050;28;20044;-80
2022/05/27 09:58:21;;;;;;;7.15;2.28;;;18.20;93.20;;;;;;5073978;28;20434;-79
2022/05/27 10:00:49;;;;;;;12.90;2.80;;;18.40;91.50;;;;;;5074214;28;20040;-78
2022/05/27 10:03:57;;;;;;;10.15;2.35;;;18.30;90.80;;;;;;5056548;28;20393;-85
2022/05/27 10:06:29;;;;;;;10.88;2.28;;;18.00;91.50;;;;;;5015223;28;20051;-81
2022/05/27 10:08:57;;;;;;;10.07;2.35;;;18.00;92.50;;;;;;5057236;28;20040;-80
2022/05/27 10:11:27;;;;;;;10.20;2.50;;;18.10;91.30;;;;;;5075094;28;20041;-80
2022/05/27 10:14:17;;;;;;;7.43;2.42;;;18.10;91.50;;;;;;5073873;28;20040;-79
2022/05/27 10:16:58;;;;;;;11.55;2.72;;;17.80;91.20;;;;;;5073818;28;20182;-80
2022/05/27 10:19:25;;;;;;;9.95;2.92;;;17.60;93.20;;;;;;5073702;28;20106;-81
2022/05/27 10:21:52;;;;;;;11.15;2.50;;;17.70;94.60;;;;;;5056162;28;20037;-81
2022/05/27 10:24:21;;;;;;;8.60;2.20;;;17.90;93.10;;;;;;5073594;28;20095;-79
2022/05/27 10:27:05;;;;;;;14.13;3.20;;;17.60;92.10;;;;;;5073331;28;20440;-81
2022/05/27 10:29:34;;;;;;;12.13;2.35;;;17.30;93.00;;;;;;5053512;28;20477;-79
2022/05/27 10:32:01;;;;;;;12.10;2.30;;;17.30;93.00;;;;;;5073653;28;20110;-81
2022/05/27 10:34:42;;;;;;;7.97;2.47;;;17.50;95.00;;;;;;5073539;28;20044;-80
2022/05/27 10:37:34;;;;;;;8.52;2.30;;;17.90;92.70;;;;;;5056036;28;20041;-80
2022/05/27 10:40:28;;;;;;;11.13;2.13;;;18.00;91.60;;;;;;5055765;28;20388;-81
2022/05/27 10:43:15;;;;;;;13.05;3.67;;;17.70;90.90;;;;;;5073061;28;20036;-80
2022/05/27 10:45:44;;;;;;;12.18;2.70;;;17.30;92.40;;;;;;5073166;28;20041;-79
2022/05/27 10:48:35;;;;;;;11.77;2.67;;;17.00;93.40;;;;;;5055612;28;20113;-81
2022/05/27 10:51:15;;;;;;;13.98;3.47;;;16.70;93.70;;;;;;5055574;28;20278;-80
2022/05/27 10:53:54;;;;;;;12.88;3.13;;;16.60;94.00;;;;;;5055357;28;20044;-81
2022/05/27 10:56:27;;;;;;;11.43;2.60;;;16.80;98.20;;;;;;5055339;28;20044;-79
2022/05/27 11:02:27;;;;;;;9.52;2.67;;;17.10;94.50;;;;;;5054027;28;20544;-81
2022/05/27 11:05:09;;;;;;;9.63;2.20;;;16.70;92.90;;;;;;5072722;28;20094;-79
2022/05/27 11:07:57;;;;;;;8.38;2.67;;;16.40;93.60;;;;;;5052735;28;20041;-80
2022/05/27 11:10:48;;;;;;;12.65;2.38;;;16.30;95.10;;;;;;5052549;28;20045;-80
2022/05/27 11:16:35;;;;;;;7.13;2.50;;;16.80;95.80;;;;;;5034918;28;20051;-81
2022/05/27 11:19:38;;;;;;;11.15;2.58;;;17.40;95.10;;;;;;5049889;28;20044;-79
2022/05/27 11:22:14;;;;;;;10.70;2.28;;;17.40;91.30;;;;;;5054808;28;20093;-81
2022/05/27 11:25:07;;;;;;;11.52;2.38;;;17.00;92.40;;;;;;5054774;28;20049;-82
2022/05/27 11:27:48;;;;;;;10.43;2.72;;;16.70;93.70;;;;;;5054432;28;20048;-79
2022/05/27 11:30:20;;;;;;;11.68;2.63;;;16.60;94.80;;;;;;5054830;28;20044;-78
2022/05/27 11:33:16;;;;;;;11.02;2.63;;;16.70;93.60;;;;;;5054783;28;20041;-79
2022/05/27 11:35:48;;;;;;;9.55;2.60;;;16.70;93.10;;;;;;5054932;28;20040;-80
2022/05/27 11:38:28;;;;;;;12.93;2.60;;;16.80;94.30;;;;;;5072574;28;20044;-81
2022/05/27 11:41:15;;;;;;;7.88;2.22;;;17.40;96.10;;;;;;5054736;28;20372;-81
2022/05/27 11:44:01;;;;;;;10.98;2.90;;;17.70;94.00;;;;;;5051944;28;20044;-80
2022/05/27 11:46:57;;;;;;;12.25;3.65;;;17.50;92.50;;;;;;5072147;28;20044;-79
2022/05/27 11:49:44;;;;;;;10.02;2.72;;;17.10;91.50;;;;;;5060849;28;20048;-79
2022/05/27 11:52:41;;;;;;;10.05;2.30;;;16.60;92.80;;;;;;5071962;28;20044;-81
2022/05/27 11:55:42;;;;;;;9.75;2.97;;;16.50;93.40;;;;;;5072361;28;20054;-78
2022/05/27 11:58:13;;;;;;;14.65;2.92;;;16.30;95.00;;;;;;5024086;28;20048;-79
2022/05/27 12:00:45;;;;;;;12.32;3.38;;;16.30;95.50;;;;;;5072096;28;20052;-78
2022/05/27 12:03:50;;;;;;;13.57;3.35;;;16.30;97.30;;;;;;5072082;28;20044;-79
2022/05/27 12:06:29;;;;;;;18.83;3.00;;;16.30;96.30;;;;;;5071529;28;20446;-79
2022/05/27 12:09:04;;;;;;;15.27;2.70;;;16.20;96.70;;;;;;5066271;28;20047;-80
2022/05/27 12:11:45;;;;;;;11.07;3.30;;;16.20;96.70;;;;;;5055872;28;20052;-79
2022/05/27 12:14:26;;;;;;;15.35;3.03;;;16.30;97.10;;;;;;5073377;28;20037;-78
2022/05/27 12:16:52;;;;;;;15.55;3.80;;;16.40;96.60;;;;;;5073873;28;20040;-78
2022/05/27 12:19:24;;;;;;;15.98;2.63;;;16.40;97.30;;;;;;5076148;28;20041;-78
2022/05/27 12:22:02;;;;;;;15.70;3.13;;;16.30;97.00;;;;;;5075500;28;20361;-79
2022/05/27 12:24:31;;;;;;;14.75;2.90;;;16.20;97.30;;;;;;5058358;28;20047;-78
2022/05/27 12:26:58;;;;;;;13.73;3.03;;;16.20;97.20;;;;;;5075542;28;20051;-79
2022/05/27 12:29:27;;;;;;;14.57;3.15;;;16.40;97.20;;;;;;5075674;28;20321;-79
2022/05/27 12:31:54;;;;;;;12.75;2.88;;;16.30;96.80;;;;;;5057834;28;20052;-79
2022/05/27 12:34:26;;;;;;;13.00;2.90;;;16.30;98.30;;;;;;5075745;28;20044;-80
2022/05/27 12:36:53;;;;;;;9.95;2.08;;;16.50;98.20;;;;;;5075530;28;20036;-79
2022/05/27 12:39:29;;;;;;;13.02;3.70;;;16.50;99.10;;;;;;5058151;28;20117;-79
2022/05/27 12:42:16;;;;;;;12.23;2.83;;;16.40;98.60;;;;;;5075142;28;20044;-79
2022/05/27 12:44:44;;;;;;;11.73;2.53;;;16.40;99.00;;;;;;5072844;28;20049;-80
2022/05/27 12:47:22;;;;;;;9.00;2.42;;;16.40;98.20;;;;;;5075346;28;20097;-77
2022/05/27 12:50:11;;;;;;;12.75;3.00;;;16.40;98.60;;;;;;5075593;28;20359;-79
2022/05/27 12:52:37;;;;;;;8.43;2.75;;;16.40;99.20;;;;;;5075168;28;20044;-79
2022/05/27 12:55:38;;;;;;;10.25;2.42;;;16.40;97.10;;;;;;5075208;28;20135;-78
2022/05/27 13:01:00;;;;;;;13.27;3.05;;;16.30;98.40;;;;;;5057487;28;20358;-79
2022/05/27 13:03:37;;;;;;;10.38;2.28;;;16.20;98.50;;;;;;5074786;28;20041;-79
2022/05/27 13:06:14;;;;;;;11.10;2.78;;;16.20;97.90;;;;;;5057611;28;20056;-78
2022/05/27 13:08:58;;;;;;;14.50;2.72;;;16.00;98.20;;;;;;5040926;28;20048;-77
2022/05/27 13:11:25;;;;;;;11.32;2.53;;;15.90;98.90;;;;;;5074816;28;20060;-79
2022/05/27 13:14:12;;;;;;;13.70;3.35;;;16.00;98.60;;;;;;5054374;28;20052;-77
2022/05/27 13:16:54;;;;;;;13.32;2.97;;;16.10;98.20;;;;;;5056877;28;20049;-78
2022/05/27 13:19:41;;;;;;;15.30;3.30;;;16.00;97.70;;;;;;5074960;28;20048;-79
2022/05/27 13:22:29;;;;;;;9.55;2.83;;;15.80;98.90;;;;;;5036389;28;20048;-78
2022/05/27 13:25:35;;;;;;;10.90;2.50;;;15.60;99.70;;;;;;5054482;28;20079;-79
2022/05/27 13:28:11;;;;;;;10.63;3.13;;;15.60;99.90;;;;;;5053540;28;20053;-77
2022/05/27 13:30:49;;;;;;;10.30;2.78;;;15.70;99.90;;;;;;5036924;28;20049;-79
2022/05/27 13:33:19;;;;;;;14.45;3.25;;;15.90;99.90;;;;;;5066126;28;20040;-79
2022/05/27 13:35:48;;;;;;;9.70;2.78;;;16.10;99.90;;;;;;5074741;28;20040;-79
2022/05/27 13:38:23;;;;;;;11.85;2.78;;;16.10;99.90;;;;;;5074319;28;20036;-79
2022/05/27 13:40:49;;;;;;;12.25;2.55;;;16.10;99.90;;;;;;5074359;28;20048;-78